»·PEaware :: N364KQ KHII-KBLH

N364KQ :: KHII-KBLH

FLIGHT INFORMATION

Flight Status: Arrived
Operator: Privately registered:
United States
More flights under this callsign
Pilot: Brian K. (18535)
Aircraft: CESSNA 172 SKYHAWK
(C172)
More flights by this aircraft type
Origin: KHII Lake Havasu City
United States
Destination: KBLH Blythe
United States
More flights between these airports :: More routes between these airports
Route:
File this flight plan on PilotEdge
Remarks:
Altitude:
(Current/Filed)
0ft
Speed:
(Current/Filed)
0kts
Departed: 15-Apr-18 01:26 PM
Arrived: 15-Apr-18 02:14 PM
Distance/Time
Traveled:
60nm/0:47
Distance/Time
To Go:
Arrived

Flight Plot

Page will automatically refresh every two minutes.


Map Options




Map Legend


Flown Route
Filed Route
Departure Airport
Arrival Airport
Navaid (VOR, NDB)
Fix

Horizontal Profiles

Position Reports

Time Latitude Longitude Heading Altitude Ground
Speed
15-Apr-18 13:22 34.578215 -114.364639 330 752ft 9kts
15-Apr-18 13:23 34.578919 -114.365472 324 752ft 0kts
15-Apr-18 13:24 34.579047 -114.365523 355 752ft 4kts
15-Apr-18 13:25 34.578371 -114.363431 152 752ft 55kts
15-Apr-18 13:26 34.562887 -114.350124 150 1366ft 83kts
15-Apr-18 13:27 34.543894 -114.334494 149 2098ft 82kts
15-Apr-18 13:28 34.523499 -114.321008 171 2495ft 82kts
15-Apr-18 13:29 34.498747 -114.317687 175 2557ft 91kts
15-Apr-18 13:30 34.474436 -114.313271 172 2587ft 97kts
15-Apr-18 13:31 34.448410 -114.307084 169 2555ft 93kts
15-Apr-18 13:32 34.424213 -114.297146 149 2399ft 98kts
15-Apr-18 13:33 34.403381 -114.276557 140 2349ft 94kts
15-Apr-18 13:34 34.386509 -114.251865 125 2392ft 98kts
15-Apr-18 13:35 34.374238 -114.222576 119 2461ft 98kts
15-Apr-18 13:36 34.360687 -114.194312 130 2509ft 96kts
15-Apr-18 13:37 34.343392 -114.170012 139 2561ft 94kts
15-Apr-18 13:38 34.323514 -114.149023 143 2557ft 98kts
15-Apr-18 13:39 34.299202 -114.150070 207 2569ft 95kts
15-Apr-18 13:40 34.277398 -114.167715 219 2621ft 92kts
15-Apr-18 13:41 34.257184 -114.188096 217 2569ft 95kts
15-Apr-18 13:42 34.236105 -114.206291 219 2588ft 91kts
15-Apr-18 13:43 34.216005 -114.226731 222 2524ft 95kts
15-Apr-18 13:44 34.195788 -114.246815 218 2496ft 96kts
15-Apr-18 13:45 34.174332 -114.265041 214 2496ft 94kts
15-Apr-18 13:46 34.150403 -114.278470 202 2457ft 97kts
15-Apr-18 13:47 34.129171 -114.295698 227 2486ft 92kts
15-Apr-18 13:48 34.111310 -114.318734 225 2451ft 93kts
15-Apr-18 13:49 34.095434 -114.335565 219 2429ft 94kts
15-Apr-18 13:50 34.074533 -114.353746 215 2395ft 96kts
15-Apr-18 13:51 34.052534 -114.369668 210 2390ft 95kts
15-Apr-18 13:52 34.030195 -114.385561 211 2384ft 93kts
15-Apr-18 13:53 34.003224 -114.403722 203 2401ft 95kts
15-Apr-18 13:54 33.978415 -114.413530 194 2455ft 95kts
15-Apr-18 13:55 33.957612 -114.422445 205 2533ft 93kts
15-Apr-18 13:56 33.934012 -114.437970 203 2529ft 97kts
15-Apr-18 13:57 33.910383 -114.451084 200 2522ft 96kts
15-Apr-18 13:58 33.886872 -114.462970 197 2540ft 92kts
15-Apr-18 13:59 33.862422 -114.472853 194 2572ft 90kts
15-Apr-18 14:00 33.837230 -114.482075 194 2515ft 97kts
15-Apr-18 14:01 33.812350 -114.492950 198 2545ft 94kts
15-Apr-18 14:02 33.787872 -114.504777 200 2516ft 98kts
15-Apr-18 14:03 33.763662 -114.517840 200 2512ft 98kts
15-Apr-18 14:04 33.741781 -114.535938 237 2495ft 109kts
15-Apr-18 14:05 33.731702 -114.569633 245 2526ft 107kts
15-Apr-18 14:06 33.716531 -114.599361 227 2512ft 100kts
15-Apr-18 14:07 33.701266 -114.629053 237 2003ft 103kts
15-Apr-18 14:08 33.688768 -114.660201 238 1561ft 106kts
15-Apr-18 14:09 33.679153 -114.693299 243 1177ft 109kts
15-Apr-18 14:10 33.664129 -114.714135 195 1199ft 69kts
15-Apr-18 14:11 33.648050 -114.716460 174 946ft 55kts
15-Apr-18 14:12 33.634103 -114.716689 176 605ft 45kts
15-Apr-18 14:13 33.624427 -114.716710 181 397ft 27kts
15-Apr-18 14:14 33.616646 -114.716760 181 397ft 28kts
15-Apr-18 14:15 33.614988 -114.714163 88 397ft 17kts
15-Apr-18 14:16 33.614129 -114.712703 189 397ft 0kts

Navigation Log

Ident Type
1. KHII Airport
2. KBLH Airport